Flight Track Log - Related Links

Times and Time Zones

All times are in EDT time to prevent confusion due to time zone crossing. See the AWE1190 flight status page for this flight to view local times or setup timezone preferences in your user account.

Time Position Orientation Groundspeed Altitude Reporting Facility
EDT Latitude Longitude Course Direction KTS MPH feet Rate Location/Type
Sun 02:29:36 PM 28.4240 -81.3130 53° Northeast 17 20  Level FlightAware ADS-B
Sun 02:41:00 PM 28.3333 -81.2667 156° South 234 269 2,800 412 Climbing Orlando TRACON
Sun 02:41:59 PM 28.3167 -81.1833 103° East 291 335 5,100 2,400 Climbing Orlando TRACON
Sun 02:42:00 PM 28.7868 -81.2913 139° Southeast  Level Estimated
Sun 02:43:00 PM 28.9059 -81.2853 114° Southeast  Level Estimated
Sun 02:43:00 PM 28.3000 -81.1000 103° East 284 327 7,600  Level Orlando TRACON
Sun 02:44:00 PM 29.0250 -81.2794 180° South  Level Estimated
Sun 02:44:00 PM 28.2500 -81.0167 124° Southeast 281 323 10,000  Level Orlando TRACON
Sun 02:44:34 PM 28.2222 -80.9967 148° Southeast 290 334 10,800 1,915 Climbing Miami Center
Sun 02:45:00 PM 29.1441 -81.2734 53° Northeast  Level Estimated
Sun 02:45:34 PM 28.1531 -80.9306 140° Southeast 321 369 13,000  Level Miami Center
Sun 02:46:34 PM 28.0797 -80.8667 142° Southeast 336 387 14,000 1,150 Climbing Miami Center
Sun 02:47:34 PM 28.0553 -80.7742 107° East 335 386 15,300 1,600 Climbing Miami Center
Sun 02:48:34 PM 28.1125 -80.6653 59° Northeast 328 377 17,200 1,850 Climbing Miami Center
Sun 02:49:34 PM 28.1817 -80.5758 49° Northeast 345 397 19,000 1,600 Climbing Miami Center
Sun 02:50:34 PM 28.2528 -80.4886 47° Northeast 364 419 20,400 1,333 Climbing Miami Center
Sun 02:52:34 PM 28.4189 -80.3500 36° Northeast 387 445 23,000 841 Climbing Miami Center
Sun 02:58:25 PM 28.6420 -79.6390 36° Northeast 434 499 27,000 614 Climbing FlightAware ADS-B
Sun 02:59:05 PM 28.6750 -79.5710 61° Northeast 434 499 27,000 558 Level FlightAware ADS-B
Sun 03:00:34 PM 28.8311 -79.4011 57° Northeast 459 528 28,200 861 Climbing Miami Center
Sun 03:02:34 PM 29.0206 -79.1919 44° Northeast 442 509 30,000 833 Climbing Miami Center
Sun 03:03:34 PM 29.1564 -79.1639 10° North 445 512 30,700 600 Climbing Miami Center
Sun 03:04:34 PM 29.2742 -79.1139 20° North 450 518 31,200 625 Climbing Miami Center
Sun 03:06:00 PM 29.4158 -79.0245 24° Northeast  Level FlightAware Approximate
Sun 03:07:00 PM 29.2997 -78.7572 57° Northeast  Level FlightAware Approximate
Sun 03:07:34 PM 29.6475 -78.9689 24° Northeast 470 541 33,200  Level Miami Center
Sun 03:09:52 PM 29.9456 -78.9136 North 487 560 33,800 455 Climbing Jacksonville Center
Sun 03:10:52 PM 30.0719 -78.8869 10° North 487 560 34,700 600 Climbing Jacksonville Center
Sun 03:11:52 PM 30.2069 -78.8619 North 482 555 35,000 150 Climbing Jacksonville Center
Sun 03:12:52 PM 30.3417 -78.8347 10° North 488 562 35,000  Level Jacksonville Center
Sun 03:13:51 PM 30.4683 -78.8100 10° North 483 556 35,000  Level Jacksonville Center
Sun 03:14:52 PM 30.6094 -78.7847 North 488 562 35,000  Level Jacksonville Center
Sun 03:15:52 PM 30.7444 -78.7597 North 484 557 35,000  Level Jacksonville Center
Sun 03:16:52 PM 30.8769 -78.7319 10° North 491 565 35,000  Level Jacksonville Center
Sun 03:17:51 PM 31.0264 -78.7061 North 491 565 35,000 -50 Level Jacksonville Center
Sun 03:18:51 PM 31.1614 -78.6806 North 486 559 34,900  Descending Jacksonville Center
Sun 03:19:52 PM 31.2981 -78.6478 12° North 486 559 35,000 50 Climbing Jacksonville Center
Sun 03:20:52 PM 31.4286 -78.6247 North 481 554 35,000 -50 Level Jacksonville Center
Sun 03:21:52 PM 31.5636 -78.5967 10° North 491 565 34,900  Descending Jacksonville Center
Sun 03:22:52 PM 31.6961 -78.5711 North 485 558 35,000  Climbing Jacksonville Center
Sun 03:23:52 PM 31.8350 -78.5425 10° North 485 558 34,900 -50 Descending Jacksonville Center
Sun 03:24:52 PM 31.9636 -78.5169 10° North 485 558 34,900 50 Level Jacksonville Center
Sun 03:25:52 PM 32.1003 -78.4883 10° North 485 558 35,000 50 Climbing Jacksonville Center
Sun 03:26:52 PM 32.2392 -78.4594 10° North 485 558 35,000  Level Jacksonville Center
Sun 03:27:52 PM 32.3719 -78.4358 North 491 565 35,000  Level Jacksonville Center
Sun 03:28:52 PM 32.5089 -78.4708 348° North 479 551 35,000  Level Jacksonville Center
Sun 03:29:52 PM 32.6283 -78.5442 333° Northwest 473 544 35,000 -804 Level Jacksonville Center
Sun 03:31:00 PM 32.7298 -78.6351 323° Northwest  Level Estimated
Sun 03:31:51 PM 32.8614 -78.7058 323° Northwest 484 557 32,600  Level Jacksonville Center
Sun 03:32:52 PM 32.9786 -78.7869 330° Northwest 484 557 31,100 -793 Descending Jacksonville Center
Sun 03:33:52 PM 33.1003 -78.8683 331° Northwest 484 557 31,000 -50 Descending Jacksonville Center
Sun 03:34:52 PM 33.2175 -78.9475 331° Northwest 490 564 31,000 -50 Level Jacksonville Center
Sun 03:35:52 PM 33.3392 -79.0289 331° Northwest 490 564 30,900 -1,033 Descending Jacksonville Center
Sun 03:37:52 PM 33.5983 -79.1150 345° North 484 557 27,900 -1,408 Descending Jacksonville Center
Sun 03:38:51 PM 33.7269 -79.1569 345° North 479 551 26,700 -1,350 Descending Jacksonville Center
Sun 03:39:52 PM 33.8511 -79.1967 345° North 474 545 25,200 -1,388 Descending Jacksonville Center
Sun 03:40:52 PM 33.9753 -79.2364 345° North 464 534 23,900 -1,150 Descending Jacksonville Center
Sun 03:41:52 PM 34.0953 -79.2742 345° North 453 521 22,900 -1,133 Descending Jacksonville Center
Sun 03:43:00 PM 34.1401 -79.4201 292° West  Level FlightAware Approximate
Sun 03:43:52 PM 34.2156 -79.4650 292° West 385 443 20,500  Level Jacksonville Center
Sun 03:44:52 PM 34.2667 -79.5886 297° West 377 434 19,100 -750 Descending Jacksonville Center
Sun 03:45:52 PM 34.3156 -79.6972 299° West 367 422 19,000 -100 Descending Jacksonville Center
Sun 03:46:52 PM 34.3619 -79.8011 298° West 376 433 18,900 -800 Descending Jacksonville Center
Sun 03:47:52 PM 34.4083 -79.9128 297° West 376 433 17,400 -1,450 Descending Jacksonville Center
Sun 03:48:52 PM 34.4506 -80.0197 296° West 369 425 16,000 -700 Descending Jacksonville Center
Sun 03:49:52 PM 34.4986 -80.1189 300° West 356 410 16,000  Level Jacksonville Center
Sun 03:50:52 PM 34.5736 -80.2147 314° West 363 418 16,000 -1,009 Level Jacksonville Center
Sun 03:51:45 PM 34.6431 -80.2944 317° Northwest 377 434 14,100 -2,389 Descending Atlanta Center
Sun 03:52:45 PM 34.7228 -80.3844 317° Northwest 354 407 11,500 -1,537 Descending Atlanta Center
Sun 03:53:46 PM 34.7878 -80.4600 316° Northwest 329 379 11,000 -787 Descending Atlanta Center
Sun 03:54:47 PM 34.8503 -80.5283 318° Northwest 289 333 9,900 -934 Descending Atlanta Center
Sun 03:55:48 PM 34.9064 -80.5967 315° West 285 328 9,100 -393 Descending Atlanta Center
Sun 03:56:49 PM 34.9606 -80.6681 313° West 286 329 9,100  Level Atlanta Center
Sun 03:57:50 PM 35.0167 -80.7367 315° West 286 329 9,100 -50 Level Atlanta Center
Sun 03:58:50 PM 35.0769 -80.8081 316° Northwest 286 329 9,000 -659 Descending Atlanta Center
Sun 04:00:00 PM 35.2016 -80.7863 54° Northeast  Level FlightAware Approximate
Sun 04:00:52 PM 35.2264 -80.7792 54° Northeast 290 334 7,100  Level Atlanta Center

Login

Don't have an account? Register now (free) for customized features, flight alerts, and more!